createdAt,value
2023-10-20T00:01:30.840Z,100.00
2023-10-20T00:04:33.067Z,100.00
2023-10-20T00:07:35.208Z,100.00
2023-10-20T00:10:38.021Z,100.00
2023-10-20T00:13:50.408Z,100.00
2023-10-20T00:16:52.510Z,100.00
2023-10-20T00:19:54.578Z,100.00
2023-10-20T00:22:56.906Z,100.00
2023-10-20T00:25:59.967Z,100.00
2023-10-20T00:29:01.944Z,100.00
2023-10-20T00:32:05.831Z,100.00
2023-10-20T00:35:14.680Z,100.00
2023-10-20T00:38:17.079Z,100.00
2023-10-20T00:41:19.131Z,100.00
2023-10-20T00:44:21.415Z,100.00
2023-10-20T00:47:23.593Z,100.00
2023-10-20T00:50:25.843Z,100.00
2023-10-20T00:53:29.495Z,100.00
2023-10-20T00:56:31.911Z,100.00
2023-10-20T00:59:33.796Z,100.00
2023-10-20T01:02:39.370Z,100.00
2023-10-20T01:05:41.472Z,100.00
2023-10-20T01:08:43.513Z,100.00
2023-10-20T01:11:46.344Z,100.00
2023-10-20T01:14:48.368Z,100.00
2023-10-20T01:17:51.104Z,100.00
2023-10-20T01:20:53.184Z,100.00
2023-10-20T01:23:55.752Z,100.00
2023-10-20T01:26:57.672Z,100.00
2023-10-20T01:29:59.630Z,100.00
2023-10-20T01:33:01.616Z,100.00
2023-10-20T01:36:03.748Z,100.00
2023-10-20T01:39:06.240Z,100.00
2023-10-20T01:42:08.615Z,100.00
2023-10-20T01:45:11.219Z,100.00
2023-10-20T01:52:20.860Z,100.00
2023-10-20T01:55:22.946Z,100.00
2023-10-20T01:58:24.906Z,100.00
2023-10-20T02:01:28.215Z,100.00
2023-10-20T02:04:30.301Z,100.00
2023-10-20T02:07:32.181Z,100.00
2023-10-20T02:10:34.194Z,100.00
2023-10-20T02:13:36.927Z,100.00
2023-10-20T02:20:26.390Z,100.00
2023-10-20T02:23:30.982Z,100.00
2023-10-20T02:26:33.004Z,100.00
2023-10-20T02:29:34.943Z,100.00
2023-10-20T02:33:19.064Z,100.00
2023-10-20T02:37:20.019Z,100.00
2023-10-20T02:40:40.544Z,100.00
2023-10-20T02:44:00.146Z,100.00
2023-10-20T02:47:04.632Z,100.00
2023-10-20T02:51:09.031Z,100.00
2023-10-20T02:54:57.490Z,100.00
2023-10-20T02:58:57.940Z,100.00
2023-10-20T03:03:00.236Z,100.00
2023-10-20T03:07:02.135Z,100.00
2023-10-20T03:10:04.361Z,100.00
2023-10-20T03:13:06.490Z,100.00
2023-10-20T03:16:08.496Z,100.00
2023-10-20T03:19:12.964Z,100.00
2023-10-20T03:22:14.948Z,100.00
2023-10-20T03:25:19.162Z,100.00
2023-10-20T03:28:21.129Z,100.00
2023-10-20T03:31:23.414Z,100.00
2023-10-20T03:34:25.389Z,100.00
2023-10-20T03:37:28.598Z,100.00
2023-10-20T03:40:41.601Z,100.00
2023-10-20T03:43:43.429Z,100.00
2023-10-20T03:46:57.730Z,100.00
2023-10-20T03:50:01.996Z,100.00
2023-10-20T03:53:04.308Z,100.00
2023-10-20T03:56:08.106Z,100.00
2023-10-20T03:59:14.946Z,100.00
2023-10-20T04:02:17.026Z,100.00
2023-10-20T04:05:20.928Z,100.00
2023-10-20T04:08:24.452Z,100.00
2023-10-20T04:11:26.474Z,100.00
2023-10-20T04:14:28.312Z,100.00
2023-10-20T04:17:30.326Z,100.00
2023-10-20T04:20:38.919Z,100.00
2023-10-20T04:23:41.562Z,100.00
2023-10-20T04:26:43.808Z,100.00
2023-10-20T04:30:05.720Z,100.00
2023-10-20T04:33:26.114Z,100.00
2023-10-20T04:36:46.879Z,100.00
2023-10-20T04:40:07.270Z,100.00
2023-10-20T04:43:15.595Z,100.00
2023-10-20T04:46:32.416Z,100.00
2023-10-20T04:49:52.902Z,100.00
2023-10-20T04:53:12.345Z,100.00
2023-10-20T04:56:16.928Z,100.00
2023-10-20T04:59:24.247Z,100.00
2023-10-20T05:02:40.800Z,100.00
2023-10-20T05:05:54.852Z,100.00
2023-10-20T05:08:57.518Z,100.00
2023-10-20T05:11:59.429Z,100.00
2023-10-20T05:15:01.392Z,100.00
2023-10-20T05:18:03.927Z,100.00
2023-10-20T05:21:09.676Z,100.00
2023-10-20T05:24:12.012Z,100.00
2023-10-20T05:27:13.986Z,100.00
2023-10-20T05:30:15.965Z,100.00
2023-10-20T05:33:17.958Z,100.00
2023-10-20T05:36:19.949Z,100.00
2023-10-20T05:39:22.835Z,100.00
2023-10-20T05:42:25.223Z,100.00
2023-10-20T05:45:30.219Z,100.00
2023-10-20T05:48:32.491Z,100.00
2023-10-20T05:51:34.455Z,100.00
2023-10-20T05:54:36.557Z,100.00
2023-10-20T05:57:38.455Z,100.00
2023-10-20T06:00:59.519Z,100.00
2023-10-20T06:04:02.886Z,100.00
2023-10-20T06:07:05.554Z,100.00
2023-10-20T06:10:10.459Z,100.00
2023-10-20T06:13:14.787Z,100.00
2023-10-20T06:16:16.682Z,100.00
2023-10-20T06:19:18.638Z,100.00
2023-10-20T06:22:20.679Z,100.00
2023-10-20T06:25:22.962Z,100.00
2023-10-20T06:28:24.847Z,100.00
2023-10-20T06:31:36.103Z,100.00
2023-10-20T06:34:42.284Z,100.00
2023-10-20T06:37:56.288Z,100.00
2023-10-20T06:40:58.575Z,100.00
2023-10-20T06:44:00.479Z,100.00
2023-10-20T06:47:02.750Z,100.00
2023-10-20T06:50:04.880Z,100.00
2023-10-20T06:53:07.223Z,100.00
2023-10-20T06:56:16.395Z,100.00
2023-10-20T06:59:21.648Z,100.00
2023-10-20T07:02:23.799Z,100.00
2023-10-20T07:05:25.980Z,100.00
2023-10-20T07:08:28.623Z,100.00
2023-10-20T07:11:30.697Z,100.00
2023-10-20T07:14:32.950Z,100.00
2023-10-20T07:17:35.892Z,100.00
2023-10-20T07:20:40.201Z,100.00
2023-10-20T07:23:43.166Z,100.00
2023-10-20T07:26:45.388Z,100.00
2023-10-20T07:29:47.458Z,100.00
2023-10-20T07:32:51.397Z,100.00
2023-10-20T07:35:53.661Z,100.00
2023-10-20T07:38:56.064Z,100.00
2023-10-20T07:41:58.692Z,100.00
2023-10-20T07:45:01.449Z,100.00
2023-10-20T07:48:06.392Z,100.00
2023-10-20T07:51:08.500Z,100.00
2023-10-20T07:54:15.955Z,100.00
2023-10-20T07:57:25.908Z,100.00
2023-10-20T08:00:30.828Z,100.00
2023-10-20T08:03:33.195Z,100.00
2023-10-20T08:06:36.545Z,100.00
2023-10-20T08:09:38.994Z,100.00
2023-10-20T08:12:40.907Z,100.00
2023-10-20T08:15:43.499Z,100.00
2023-10-20T08:18:46.266Z,100.00
2023-10-20T08:21:48.838Z,100.00
2023-10-20T08:24:50.710Z,100.00
2023-10-20T08:27:52.914Z,100.00
2023-10-20T08:31:18.872Z,100.00
2023-10-20T08:34:21.914Z,100.00
2023-10-20T08:37:24.003Z,100.00
2023-10-20T08:40:26.459Z,100.00
2023-10-20T08:43:28.956Z,100.00
2023-10-20T08:46:31.061Z,100.00
2023-10-20T08:49:33.721Z,100.00
2023-10-20T08:52:37.647Z,100.00
2023-10-20T08:55:43.175Z,100.00
2023-10-20T08:58:48.307Z,100.00
2023-10-20T09:01:52.833Z,100.00
2023-10-20T09:04:54.838Z,100.00
2023-10-20T09:08:00.783Z,100.00
2023-10-20T09:11:03.263Z,100.00
2023-10-20T09:14:07.708Z,100.00
2023-10-20T09:17:21.536Z,100.00
2023-10-20T09:20:24.941Z,100.00
2023-10-20T09:23:27.025Z,100.00
2023-10-20T09:26:30.454Z,100.00
2023-10-20T09:29:33.209Z,100.00
2023-10-20T09:32:39.219Z,100.00
2023-10-20T09:35:42.886Z,100.00
2023-10-20T09:38:46.138Z,100.00
2023-10-20T09:41:50.852Z,100.00
2023-10-20T09:45:26.974Z,100.00
2023-10-20T09:48:28.923Z,100.00
2023-10-20T09:51:33.040Z,100.00
2023-10-20T09:54:36.006Z,100.00
2023-10-20T09:57:38.128Z,100.00
2023-10-20T10:00:43.621Z,100.00
2023-10-20T10:04:04.683Z,100.00
2023-10-20T10:07:10.799Z,100.00
2023-10-20T10:10:21.276Z,100.00
2023-10-20T10:13:33.833Z,100.00
2023-10-20T10:16:50.929Z,100.00
2023-10-20T10:19:54.816Z,100.00
2023-10-20T10:23:10.486Z,100.00
2023-10-20T10:26:16.145Z,100.00
2023-10-20T10:29:20.103Z,100.00
2023-10-20T10:32:24.064Z,100.00
2023-10-20T10:35:27.208Z,100.00
2023-10-20T10:38:32.324Z,100.00
2023-10-20T10:41:35.611Z,100.00
2023-10-20T10:57:52.356Z,100.00
2023-10-20T11:19:45.824Z,96.05
2023-10-20T11:39:54.785Z,95.54
2023-10-20T11:42:57.242Z,96.87
2023-10-20T11:45:59.307Z,97.23
2023-10-20T11:49:01.284Z,98.15
2023-10-20T11:52:07.122Z,98.25
2023-10-20T11:55:11.606Z,97.65
2023-10-20T11:58:13.835Z,95.51
2023-10-20T12:01:15.911Z,94.59
2023-10-20T12:04:18.014Z,94.45
2023-10-20T12:07:20.176Z,94.40
2023-10-20T12:10:25.072Z,94.35
2023-10-20T12:13:27.153Z,95.39
2023-10-20T12:16:29.213Z,94.47
2023-10-20T12:19:31.197Z,93.77
2023-10-20T12:22:33.145Z,95.20
2023-10-20T12:25:35.152Z,94.71
2023-10-20T12:28:37.002Z,94.20
2023-10-20T12:31:38.970Z,92.56
2023-10-20T12:34:41.146Z,91.73
2023-10-20T12:37:43.132Z,90.41
2023-10-20T12:40:45.014Z,89.72
2023-10-20T12:43:48.512Z,90.11
2023-10-20T12:46:51.812Z,91.74
2023-10-20T12:49:57.024Z,91.72
2023-10-20T12:52:59.285Z,91.20
2023-10-20T12:56:01.250Z,90.21
2023-10-20T12:59:03.365Z,89.80
2023-10-20T13:02:05.544Z,89.17
2023-10-20T13:05:08.437Z,89.17
2023-10-20T13:08:10.270Z,91.28
2023-10-20T13:11:12.892Z,91.09
2023-10-20T13:14:14.801Z,89.67
2023-10-20T13:17:16.841Z,89.36
2023-10-20T13:20:18.913Z,89.12
2023-10-20T13:23:20.897Z,90.04
2023-10-20T13:26:22.876Z,90.77
2023-10-20T13:29:24.855Z,91.18
2023-10-20T13:32:26.901Z,91.12
2023-10-20T13:35:28.877Z,92.01
2023-10-20T13:38:33.056Z,92.01
2023-10-20T13:41:35.176Z,89.92
2023-10-20T13:44:37.624Z,89.52
2023-10-20T13:47:39.723Z,89.54
2023-10-20T13:50:41.807Z,89.19
2023-10-20T13:53:43.866Z,89.19
2023-10-20T13:56:45.914Z,88.59
2023-10-20T13:59:48.072Z,89.18
2023-10-20T14:02:50.140Z,88.71
2023-10-20T14:05:56.029Z,88.71
2023-10-20T14:08:58.371Z,88.57
2023-10-20T14:12:00.364Z,88.73
2023-10-20T14:15:03.550Z,87.99
2023-10-20T14:18:05.845Z,87.99
2023-10-20T14:21:09.448Z,86.76
2023-10-20T14:24:11.341Z,87.64
2023-10-20T14:27:14.302Z,88.71
2023-10-20T14:30:16.190Z,88.61
2023-10-20T14:33:18.103Z,88.61
2023-10-20T14:36:20.669Z,88.04
2023-10-20T14:56:17.527Z,100.00
2023-10-20T14:59:19.479Z,100.00
2023-10-20T15:02:21.346Z,100.00
2023-10-20T15:05:24.219Z,100.00
2023-10-20T15:08:26.369Z,100.00
2023-10-20T15:11:30.687Z,100.00
2023-10-20T15:14:33.093Z,83.59
2023-10-20T15:17:35.141Z,83.59
2023-10-20T15:20:41.362Z,81.86
2023-10-20T15:23:43.291Z,80.80
2023-10-20T15:26:47.060Z,80.31
2023-10-20T15:29:49.225Z,79.77
2023-10-20T15:32:51.212Z,79.40
2023-10-20T15:35:53.174Z,78.79
2023-10-20T15:38:56.058Z,77.99
2023-10-20T15:41:58.115Z,78.74
2023-10-20T15:45:00.566Z,78.87
2023-10-20T15:48:04.446Z,79.19
2023-10-20T15:51:06.662Z,79.11
2023-10-20T15:54:09.010Z,79.46
2023-10-20T15:57:11.324Z,79.46
2023-10-20T16:00:14.178Z,80.47
2023-10-20T16:03:19.845Z,80.30
2023-10-20T16:06:22.503Z,79.79
2023-10-20T16:09:24.423Z,79.82
2023-10-20T16:12:26.310Z,79.55
2023-10-20T16:15:29.557Z,79.44
2023-10-20T16:18:31.521Z,77.79
2023-10-20T16:21:33.527Z,77.55
2023-10-20T16:24:38.260Z,78.98
2023-10-20T16:27:42.903Z,78.54
2023-10-20T16:30:47.339Z,78.73
2023-10-20T16:33:49.257Z,78.52
2023-10-20T16:36:51.261Z,77.97
2023-10-20T16:39:53.129Z,77.80
2023-10-20T16:42:55.036Z,78.46
2023-10-20T16:45:57.037Z,78.46
2023-10-20T16:48:59.200Z,78.05
2023-10-20T16:52:01.177Z,77.96
2023-10-20T16:55:03.140Z,76.47
2023-10-20T16:58:05.997Z,75.14
2023-10-20T17:01:08.275Z,73.65
2023-10-20T17:04:10.610Z,72.68
2023-10-20T17:07:12.687Z,72.78
2023-10-20T17:10:14.704Z,72.29
2023-10-20T17:13:16.777Z,72.24
2023-10-20T17:16:19.063Z,72.12
2023-10-20T17:19:20.961Z,72.73
2023-10-20T17:22:22.890Z,72.40
2023-10-20T17:25:24.749Z,72.82
2023-10-20T17:28:26.936Z,72.78
2023-10-20T17:31:28.886Z,73.20
2023-10-20T17:34:31.581Z,72.58
2023-10-20T17:37:33.447Z,72.50
2023-10-20T17:40:36.162Z,71.43
2023-10-20T17:43:38.687Z,71.50
2023-10-20T17:46:41.338Z,71.05
2023-10-20T17:49:43.276Z,70.67
2023-10-20T17:52:46.246Z,70.52
2023-10-20T17:55:49.063Z,70.05
2023-10-20T18:02:52.143Z,70.46
2023-10-20T18:05:54.776Z,71.65
2023-10-20T18:08:57.612Z,71.90
2023-10-20T18:11:59.532Z,72.29
2023-10-20T18:15:01.755Z,72.01
2023-10-20T18:18:07.183Z,72.19
2023-10-20T18:21:09.463Z,72.33
2023-10-20T18:24:11.505Z,72.22
2023-10-20T18:27:13.387Z,72.74
2023-10-20T18:30:15.581Z,73.29
2023-10-20T18:33:17.804Z,73.39
2023-10-20T18:36:19.722Z,73.82
2023-10-20T18:39:23.233Z,73.42
2023-10-20T18:42:26.166Z,73.23
2023-10-20T18:45:28.711Z,71.53
2023-10-20T18:48:30.855Z,71.74
2023-10-20T18:51:33.684Z,71.51
2023-10-20T18:54:35.600Z,71.86
2023-10-20T18:57:37.537Z,72.47
2023-10-20T19:00:39.671Z,72.41
2023-10-20T19:03:42.104Z,71.86
2023-10-20T19:06:44.569Z,70.60
2023-10-20T19:09:47.015Z,70.87
2023-10-20T19:12:49.246Z,70.80
2023-10-20T19:15:51.521Z,70.71
2023-10-20T19:19:43.573Z,70.91
2023-10-20T19:22:46.631Z,70.65
2023-10-20T19:26:01.613Z,70.61
2023-10-20T19:29:05.661Z,71.46
2023-10-20T19:32:08.999Z,71.33
2023-10-20T19:35:11.119Z,71.70
2023-10-20T19:38:13.560Z,71.51
2023-10-20T19:41:15.595Z,71.33
2023-10-20T19:44:17.489Z,71.30
2023-10-20T19:47:19.410Z,70.96
2023-10-20T19:50:21.343Z,70.74
2023-10-20T19:53:24.124Z,71.05
2023-10-20T19:56:26.130Z,71.87
2023-10-20T19:59:27.979Z,71.65
2023-10-20T20:02:29.985Z,72.17
2023-10-20T20:05:32.093Z,72.34
2023-10-20T20:08:34.131Z,72.14
2023-10-20T20:11:36.158Z,70.86
2023-10-20T20:14:38.121Z,70.77
2023-10-20T20:17:40.217Z,71.05
2023-10-20T20:20:42.200Z,71.45
2023-10-20T20:23:55.068Z,71.93
2023-10-20T20:26:57.052Z,72.26
2023-10-20T20:29:59.014Z,72.65
2023-10-20T20:33:01.001Z,72.88
2023-10-20T20:36:05.635Z,73.18
2023-10-20T20:39:07.638Z,73.00
2023-10-20T20:42:10.055Z,72.67
2023-10-20T20:45:12.171Z,72.93
2023-10-20T20:48:14.259Z,73.68
2023-10-20T20:51:16.317Z,74.35
2023-10-20T20:54:18.463Z,75.57
2023-10-20T20:57:20.306Z,76.34
2023-10-20T21:00:22.171Z,76.68
2023-10-20T21:03:24.137Z,76.66
2023-10-20T21:06:26.171Z,76.88
2023-10-20T21:09:28.849Z,77.99
2023-10-20T21:12:30.965Z,77.84
2023-10-20T21:15:36.977Z,77.61
2023-10-20T21:18:39.465Z,77.91
2023-10-20T21:21:41.432Z,77.53
2023-10-20T21:24:43.651Z,77.67
2023-10-20T21:27:45.657Z,78.31
2023-10-20T21:30:47.783Z,78.82
2023-10-20T21:33:49.761Z,79.39
2023-10-20T21:36:51.679Z,80.13
2023-10-20T21:39:53.660Z,80.33
2023-10-20T21:42:55.522Z,80.43
2023-10-20T21:45:58.721Z,80.98
2023-10-20T21:49:00.764Z,80.56
2023-10-20T21:52:02.667Z,80.33
2023-10-20T21:55:05.142Z,79.96
2023-10-20T21:58:07.277Z,79.52
2023-10-20T22:01:10.316Z,78.98
2023-10-20T22:04:12.604Z,78.96
2023-10-20T22:07:14.775Z,78.92
2023-10-20T22:10:16.668Z,78.57
2023-10-20T22:13:18.974Z,78.43
2023-10-20T22:16:20.838Z,78.69
2023-10-20T22:19:22.773Z,78.32
2023-10-20T22:22:24.666Z,77.91
2023-10-20T22:25:26.578Z,78.54
2023-10-20T22:28:31.234Z,78.41
2023-10-20T22:31:35.939Z,78.51
2023-10-20T22:34:37.832Z,78.54
2023-10-20T22:37:39.650Z,78.20
2023-10-20T22:40:41.505Z,78.78
2023-10-20T22:43:43.350Z,79.14
2023-10-20T22:46:45.243Z,79.13
2023-10-20T22:49:47.198Z,78.75
2023-10-20T22:52:49.157Z,78.55
2023-10-20T22:55:51.035Z,77.96
2023-10-20T22:58:52.913Z,77.85
2023-10-20T23:01:55.004Z,76.49
2023-10-20T23:04:57.074Z,75.95
2023-10-20T23:08:00.158Z,74.59
2023-10-20T23:11:02.023Z,74.74
2023-10-20T23:14:04.349Z,74.54
2023-10-20T23:17:06.337Z,74.23
2023-10-20T23:20:08.800Z,74.59
2023-10-20T23:23:10.999Z,74.21
2023-10-20T23:26:12.850Z,74.74
2023-10-20T23:29:14.725Z,74.75
2023-10-20T23:32:16.605Z,75.25
2023-10-20T23:35:19.999Z,75.29
2023-10-20T23:38:21.933Z,75.28
2023-10-20T23:41:23.963Z,75.52
2023-10-20T23:44:25.929Z,75.58
2023-10-20T23:47:27.928Z,75.94
2023-10-20T23:50:29.820Z,76.63
2023-10-20T23:53:31.736Z,77.21
2023-10-20T23:56:33.862Z,77.80
2023-10-20T23:59:35.975Z,77.97
